Flight Track Log - Related Links

Times and Time Zones

All times are in EDT time to prevent confusion due to time zone crossing. See the FDX916 flight status page for this flight to view local times or setup timezone preferences in your user account.

Time Position Orientation Groundspeed Altitude Reporting Facility
EDT Latitude Longitude Course Direction KTS MPH feet Rate Location/Type
Fri 05:51:45 PM 35.0333 -89.9667 192° South 162 186 900  Level KMEM
Fri 05:52:51 PM 34.9667 -89.9833 192° South 218 251 2,500 2,050 Climbing KMEM
Fri 05:53:45 PM 34.9667 -90.0500 270° West 251 289 5,000 3,211 Climbing KMEM
Fri 05:54:45 PM 34.9500 -90.1333 256° West 244 281 8,600 2,895 Climbing KMEM
Fri 05:55:39 PM 34.9500 -90.2167 270° West 253 291 10,500 1,446 Climbing KMEM
Fri 05:56:08 PM 34.9447 -90.2658 263° West 321 369 10,600 1,483 Climbing Memphis Center
Fri 05:57:08 PM 34.9364 -90.3800 265° West 378 435 12,700 2,500 Climbing Memphis Center
Fri 05:58:08 PM 34.9239 -90.4989 263° West 367 422 15,600 2,500 Climbing Memphis Center
Fri 05:59:08 PM 34.9047 -90.6181 259° West 362 417 17,700 2,150 Climbing Memphis Center
Fri 06:00:08 PM 34.8817 -90.7419 257° West 373 429 19,900 2,250 Climbing Memphis Center
Fri 06:01:08 PM 34.8394 -90.8656 247° West 373 429 22,200 1,550 Climbing Memphis Center
Fri 06:02:08 PM 34.7950 -90.9767 244° Southwest 368 423 23,000 700 Climbing Memphis Center
Fri 06:03:08 PM 34.7672 -91.0953 254° West 368 423 23,600 900 Climbing Memphis Center
Fri 06:04:08 PM 34.7478 -91.2164 259° West 368 423 24,800 1,450 Climbing Memphis Center
Fri 06:05:08 PM 34.7239 -91.3425 257° West 381 438 26,500 1,400 Climbing Memphis Center
Fri 06:06:08 PM 34.7000 -91.4686 257° West 381 438 27,600 1,100 Climbing Memphis Center
Fri 06:07:08 PM 34.6778 -91.6022 259° West 395 455 28,700 950 Climbing Memphis Center
Fri 06:08:08 PM 34.6536 -91.7153 255° West 395 455 29,500 1,100 Climbing Memphis Center
Fri 06:09:08 PM 34.6269 -91.8589 257° West 395 455 30,900 1,350 Climbing Memphis Center
Fri 06:10:08 PM 34.6025 -91.9897 257° West 395 455 32,200 1,250 Climbing Memphis Center
Fri 06:11:08 PM 34.5778 -92.1178 257° West 395 455 33,400 1,100 Climbing Memphis Center
Fri 06:12:08 PM 34.5508 -92.2483 256° West 390 449 34,400 1,000 Climbing Memphis Center
Fri 06:13:08 PM 34.5281 -92.3714 257° West 390 449 35,400 800 Climbing Memphis Center
Fri 06:14:08 PM 34.5050 -92.4944 257° West 390 449 36,000 300 Climbing Memphis Center
Fri 06:15:08 PM 34.4797 -92.6247 257° West 390 449 36,000  Level Memphis Center
Fri 06:16:08 PM 34.4544 -92.7550 257° West 390 449 36,000  Level Memphis Center
Fri 06:17:08 PM 34.4311 -92.8778 257° West 390 449 36,000  Level Memphis Center
Fri 06:18:08 PM 34.4056 -93.0078 257° West 395 455 36,000  Level Memphis Center
Fri 06:19:08 PM 34.3778 -93.1353 255° West 395 455 36,000  Level Memphis Center
Fri 06:25:16 PM 34.2200 -93.9160 255° West 391 450 36,000  Level FlightAware ADS-B
Fri 06:26:06 PM 34.1980 -94.0240 256° West 389 448 36,000  Level FlightAware ADS-B
Fri 06:26:41 PM 34.1840 -94.0920 256° West 389 448 36,000  Level FlightAware ADS-B
Fri 06:27:21 PM 34.1690 -94.1640 256° West 389 448 36,000  Level FlightAware ADS-B
Fri 06:28:11 PM 34.1500 -94.2530 256° West 389 448 36,000  Level FlightAware ADS-B
Fri 06:28:46 PM 34.1280 -94.3590 256° West 390 449 36,000  Level FlightAware ADS-B
Fri 06:29:31 PM 34.1090 -94.4450 255° West 390 449 36,000  Level FlightAware ADS-B
Fri 06:30:16 PM 34.0870 -94.5510 256° West 390 449 36,000  Level FlightAware ADS-B
Fri 06:30:46 PM 34.0740 -94.6120 256° West 390 449 36,000  Level FlightAware ADS-B
Fri 06:31:26 PM 34.0560 -94.6990 256° West 390 449 36,000  Level FlightAware ADS-B
Fri 06:32:06 PM 34.0590 -94.7870 272° West 394 453 36,000  Level FlightAware ADS-B
Fri 06:32:51 PM 34.0660 -94.8850 275° West 394 453 36,000  Level FlightAware ADS-B
Fri 06:33:31 PM 34.0720 -94.9700 275° West 394 453 36,000  Level FlightAware ADS-B
Fri 06:34:16 PM 34.0560 -95.0690 259° West 391 450 36,000  Level FlightAware ADS-B
Fri 06:34:56 PM 34.0370 -95.1550 255° West 391 450 36,000  Level FlightAware ADS-B
Fri 06:35:36 PM 34.0180 -95.2350 254° West 391 450 36,000  Level FlightAware ADS-B
Fri 06:36:21 PM 33.9950 -95.3330 254° West 391 450 36,000  Level FlightAware ADS-B
Fri 06:37:01 PM 33.9760 -95.4170 255° West 391 450 36,000  Level FlightAware ADS-B
Fri 06:37:46 PM 33.9540 -95.5090 254° West 391 450 36,000  Level FlightAware ADS-B
Fri 06:38:26 PM 33.9340 -95.5950 254° West 391 450 36,000  Level FlightAware ADS-B
Fri 06:39:06 PM 33.9150 -95.6770 254° West 391 450 36,000  Level FlightAware ADS-B
Fri 06:39:51 PM 33.8920 -95.7720 254° West 392 451 36,000  Level FlightAware ADS-B
Fri 06:40:31 PM 33.8730 -95.8560 255° West 391 450 36,000  Level FlightAware ADS-B
Fri 06:41:16 PM 33.8500 -95.9500 254° West 392 451 36,000  Level FlightAware ADS-B
Fri 06:41:56 PM 33.8300 -96.0340 254° West 393 452 36,000  Level FlightAware ADS-B
Fri 06:42:36 PM 33.8090 -96.1220 254° West 393 452 36,000  Level FlightAware ADS-B
Fri 06:43:21 PM 33.7870 -96.2150 254° West 393 452 36,000  Level FlightAware ADS-B
Fri 06:44:01 PM 33.7670 -96.2990 254° West 393 452 36,000  Level FlightAware ADS-B
Fri 06:44:41 PM 33.7460 -96.3820 253° West 392 451 36,000  Level FlightAware ADS-B
Fri 06:45:26 PM 33.7240 -96.4720 254° West 392 451 36,000  Level FlightAware ADS-B
Fri 06:46:06 PM 33.7040 -96.5580 254° West 392 451 36,000  Level FlightAware ADS-B
Fri 06:46:51 PM 33.6810 -96.6520 254° West 391 450 36,000  Level FlightAware ADS-B
Fri 06:47:31 PM 33.6600 -96.7350 253° West 391 450 36,000  Level FlightAware ADS-B
Fri 06:48:16 PM 33.6370 -96.8270 253° West 392 451 36,000  Level FlightAware ADS-B
Fri 06:48:56 PM 33.6160 -96.9120 253° West 391 450 36,000  Level FlightAware ADS-B
Fri 06:49:36 PM 33.5960 -96.9960 254° West 392 451 36,000  Level FlightAware ADS-B
Fri 06:50:21 PM 33.5720 -97.0920 253° West 393 452 36,000  Level FlightAware ADS-B
Fri 06:51:01 PM 33.5520 -97.1730 254° West 393 452 36,000  Level FlightAware ADS-B
Fri 06:51:41 PM 33.5310 -97.2540 253° West 392 451 36,000  Level FlightAware ADS-B
Fri 06:52:44 PM 33.4992 -97.3886 253° West 400 460 36,000  Level Fort Worth Center
Fri 06:53:44 PM 33.4700 -97.5131 254° West 400 460 36,000  Level Fort Worth Center
Fri 06:59:26 PM 33.2820 -98.2300 254° West 399 459 36,000  Level FlightAware ADS-B
Fri 07:00:06 PM 33.2600 -98.3140 253° West 401 461 36,000  Level FlightAware ADS-B
Fri 07:00:51 PM 33.2350 -98.4110 253° West 402 463 36,000  Level FlightAware ADS-B
Fri 07:01:31 PM 33.2150 -98.4870 253° West 401 461 36,000  Level FlightAware ADS-B
Fri 07:02:16 PM 33.1880 -98.5880 252° West 399 459 36,000  Level FlightAware ADS-B
Fri 07:03:06 PM 33.1620 -98.6880 253° West 399 459 36,000  Level FlightAware ADS-B
Fri 07:03:51 PM 33.1350 -98.7900 252° West 398 458 36,000  Level FlightAware ADS-B
Fri 07:04:36 PM 33.1110 -98.8800 252° West 398 458 36,000  Level FlightAware ADS-B
Fri 07:05:16 PM 33.0900 -98.9620 253° West 398 458 36,000  Level FlightAware ADS-B
Fri 07:05:51 PM 33.0710 -99.0300 252° West 398 458 36,000  Level FlightAware ADS-B
Fri 07:06:41 PM 33.0420 -99.1420 253° West 399 459 36,000  Level FlightAware ADS-B
Fri 07:07:21 PM 33.0180 -99.2280 252° West 399 459 36,000  Level FlightAware ADS-B
Fri 07:08:01 PM 32.9960 -99.3120 253° West 398 458 36,000  Level FlightAware ADS-B
Fri 07:08:46 PM 32.9700 -99.4080 252° West 401 461 36,000  Level FlightAware ADS-B
Fri 07:09:26 PM 32.9480 -99.4860 251° West 402 463 36,000  Level FlightAware ADS-B
Fri 07:10:11 PM 32.9220 -99.5850 253° West 402 463 36,000  Level FlightAware ADS-B
Fri 07:10:51 PM 32.8990 -99.6690 252° West 402 463 36,000  Level FlightAware ADS-B
Fri 07:11:36 PM 32.8720 -99.7640 251° West 403 464 36,000  Level FlightAware ADS-B
Fri 07:12:31 PM 32.8410 -99.8720 251° West 404 465 36,000  Level FlightAware ADS-B
Fri 07:13:11 PM 32.8210 -99.9440 252° West 404 465 36,000  Level FlightAware ADS-B
Fri 07:13:51 PM 32.8000 -100.0150 251° West 404 465 36,000  Level FlightAware ADS-B
Fri 07:14:36 PM 32.7680 -100.1430 253° West 401 461 36,000  Level FlightAware ADS-B
Fri 07:15:16 PM 32.7450 -100.2250 252° West 400 460 36,000  Level FlightAware ADS-B
Fri 07:16:01 PM 32.7170 -100.3210 251° West 402 463 36,000  Level FlightAware ADS-B
Fri 07:16:41 PM 32.6940 -100.4050 252° West 404 465 36,000  Level FlightAware ADS-B
Fri 07:17:21 PM 32.6710 -100.4890 252° West 403 464 36,000  Level FlightAware ADS-B
Fri 07:18:01 PM 32.6470 -100.5750 252° West 402 463 36,000  Level FlightAware ADS-B
Fri 07:19:01 PM 32.6130 -100.6910 251° West 403 464 36,000  Level FlightAware ADS-B
Fri 07:19:41 PM 32.5920 -100.7620 251° West 403 464 36,000  Level FlightAware ADS-B
Fri 07:20:21 PM 32.5640 -100.8640 252° West 404 465 36,000  Level FlightAware ADS-B
Fri 07:21:06 PM 32.5380 -100.9550 251° West 404 465 36,000  Level FlightAware ADS-B
Fri 07:21:51 PM 32.5090 -101.0570 251° West 404 465 36,000  Level FlightAware ADS-B
Fri 07:22:31 PM 32.4860 -101.1390 252° West 404 465 36,000  Level FlightAware ADS-B
Fri 07:23:16 PM 32.4580 -101.2330 251° West 405 466 36,000  Level FlightAware ADS-B
Fri 07:23:56 PM 32.4340 -101.3200 252° West 405 466 36,000  Level FlightAware ADS-B
Fri 07:24:41 PM 32.4060 -101.4140 251° West 405 466 36,000  Level FlightAware ADS-B
Fri 07:25:21 PM 32.3840 -101.4990 253° West 407 468 36,000  Level FlightAware ADS-B
Fri 07:26:01 PM 32.3730 -101.5870 262° West 409 471 36,000  Level FlightAware ADS-B
Fri 07:26:46 PM 32.3610 -101.6840 262° West 409 471 36,000  Level FlightAware ADS-B
Fri 07:27:26 PM 32.3500 -101.7730 262° West 409 471 36,000  Level FlightAware ADS-B
Fri 07:28:11 PM 32.3370 -101.8720 261° West 409 471 36,000  Level FlightAware ADS-B
Fri 07:28:51 PM 32.3260 -101.9550 261° West 409 471 36,000  Level FlightAware ADS-B
Fri 07:29:31 PM 32.3160 -102.0310 261° West 409 471 36,000  Level FlightAware ADS-B
Fri 07:30:31 PM 32.2980 -102.1770 262° West 410 472 36,000  Level FlightAware ADS-B
Fri 07:31:11 PM 32.2880 -102.2520 261° West 410 472 36,000  Level FlightAware ADS-B
Fri 07:31:51 PM 32.2770 -102.3280 260° West 410 472 36,000  Level FlightAware ADS-B
Fri 07:32:31 PM 32.2670 -102.4030 261° West 410 472 36,000  Level FlightAware ADS-B
Fri 07:33:11 PM 32.2570 -102.4790 261° West 410 472 36,000  Level FlightAware ADS-B
Fri 07:34:01 PM 32.2450 -102.5730 261° West 410 472 36,000  Level FlightAware ADS-B
Fri 07:34:41 PM 32.2350 -102.6480 261° West 410 472 36,000  Level FlightAware ADS-B
Fri 07:35:21 PM 32.2240 -102.7230 260° West 410 472 36,000  Level FlightAware ADS-B
Fri 07:36:01 PM 32.2140 -102.7990 261° West 410 472 36,000  Level FlightAware ADS-B
Fri 07:36:41 PM 32.2040 -102.8740 261° West 410 472 36,000  Level FlightAware ADS-B
Fri 07:37:21 PM 32.1940 -102.9490 261° West 410 472 36,000  Level FlightAware ADS-B
Fri 07:38:11 PM 32.1820 -103.0430 261° West 410 472 36,000  Level FlightAware ADS-B
Fri 07:38:51 PM 32.1710 -103.1180 260° West 410 472 36,000  Level FlightAware ADS-B
Fri 07:39:31 PM 32.1610 -103.1940 261° West 410 472 36,000  Level FlightAware ADS-B
Fri 07:40:00 PM 32.1283 -103.4294 261° West 408 470 36,000  Level Albuquerque Center
Fri 07:41:01 PM 32.1100 -103.5614 261° West 408 470 36,000  Level Albuquerque Center
Fri 07:42:03 PM 32.0925 -103.6956 261° West 410 472 36,000  Level Albuquerque Center
Fri 07:43:05 PM 32.0733 -103.8283 260° West 412 474 36,000  Level Albuquerque Center
Fri 07:44:06 PM 32.0547 -103.9608 261° West 411 473 36,000 -49 Level Albuquerque Center
Fri 07:45:08 PM 32.0358 -104.0928 260° West 413 475 35,900 -49 Descending Albuquerque Center
Fri 07:46:09 PM 32.0114 -104.2536 260° West 417 480 35,900 49 Level Albuquerque Center
Fri 07:47:11 PM 31.9928 -104.3886 261° West 419 482 36,000 48 Climbing Albuquerque Center
Fri 07:48:13 PM 31.9767 -104.5242 262° West 419 482 36,000 -1,024 Level Albuquerque Center
Fri 07:49:14 PM 31.9628 -104.6581 263° West 416 479 33,900 -2,585 Descending Albuquerque Center
Fri 07:50:16 PM 31.9486 -104.7881 263° West 409 471 30,700 -2,829 Descending Albuquerque Center
Fri 07:51:17 PM 31.9350 -104.9197 263° West 407 468 28,100 -2,683 Descending Albuquerque Center
Fri 07:52:19 PM 31.9197 -105.0694 263° West 394 453 25,200 -2,661 Descending Albuquerque Center
Fri 07:53:21 PM 31.9083 -105.1872 264° West 376 433 22,600 -2,439 Descending Albuquerque Center
Fri 07:54:22 PM 31.8950 -105.3031 262° West 364 419 20,200 -2,280 Descending Albuquerque Center
Fri 07:55:01 PM 31.8847 -105.3833 261° West 350 403 18,800 -2,226 Descending Albuquerque Center
Fri 07:55:24 PM 31.8825 -105.4172 266° West 354 407 17,900 -2,571 Descending Albuquerque Center
Fri 07:55:43 PM 31.8764 -105.4631 261° West 349 402 17,000 -2,323 Descending Albuquerque Center
Fri 07:56:26 PM 31.8753 -105.5342 269° West 361 415 15,500 -2,361 Descending Albuquerque Center
Fri 07:56:44 PM 31.8708 -105.5822 264° West 366 421 14,600 -2,226 Descending Albuquerque Center
Fri 07:57:28 PM 31.8744 -105.6514 274° West 360 414 13,200 -2,200 Descending Albuquerque Center
Fri 07:57:44 PM 31.8731 -105.6969 268° West 359 413 12,400 -1,770 Descending Albuquerque Center
Fri 07:58:29 PM 31.8739 -105.7661 271° West 353 406 11,400 -1,258 Descending Albuquerque Center
Fri 07:58:46 PM 31.8728 -105.8097 268° West 340 391 11,100 -1,065 Descending Albuquerque Center
Fri 07:59:31 PM 31.8717 -105.8883 269° West 312 359 10,300 -1,100 Descending Albuquerque Center
Fri 07:59:46 PM 31.8725 -105.9125 272° West 285 328 10,000 -968 Descending Albuquerque Center
Fri 08:00:33 PM 31.8703 -105.9786 268° West 281 323 9,300 -881 Descending Albuquerque Center
Fri 08:01:35 PM 31.8642 -106.0667 265° West 273 314 8,400 -927 Descending Albuquerque Center
Fri 08:02:36 PM 31.8583 -106.1489 265° West 256 295 7,400 -1,024 Descending Albuquerque Center
Fri 08:03:38 PM 31.8578 -106.2272 270° West 242 278 6,300 -919 Descending Albuquerque Center
Fri 08:04:40 PM 31.8569 -106.2978 269° West 220 253 5,500 -908 Descending Albuquerque Center
Fri 08:05:37 PM 31.8394 -106.3486 248° West 137 158 4,500 -774 Descending Albuquerque Center
Fri 08:06:44 PM 31.8147 -106.3797 227° Southwest 143 165 3,900 -537 Descending Albuquerque Center
Fri 08:08:00 PM 31.8072 -106.3764 270° West  Level Estimated
Fri 08:15:00 PM 31.8072 -106.3764 270° West  Level Estimated
Fri 08:16:00 PM 31.8072 -106.3764 270° West  Level Estimated
Fri 08:17:00 PM 31.8072 -106.3764 270° West  Level Estimated
Fri 08:18:00 PM 31.8072 -106.3764 270° West  Level Estimated

Login

Don't have an account? Register now (free) for customized features, flight alerts, and more!